FIMR

Details ICAO FIMR (RRG)
Name PLAINE CORAIL
Region Mauritius
Timezone Indian/Mauritius (UTC+4.0)
Plans Departing 15
Arriving 21
Stats Elevation 95 ft / 29 m (AMSL)
Location -19.757658° 63.360982°
Runways 1
Magnetic Variation 17.096° W
Sunrise 2018-05-27 02:13:25 UTC / 2018-05-27 06:13:25 Local
Sunset 2018-05-27 13:16:50 UTC / 2018-05-27 17:16:50 Local
Advertisement - Login to hide

Runways

ID Width Length Bearing (true) Bearing (mag) Surface Threshold Offset Overrun Length
12 98 ft / 30 m 4,222 ft / 1,287 m 105.95° 123.05° Asphalt 440 ft / 134 m 98 ft / 30 m
30 98 ft / 30 m 4,222 ft / 1,287 m 285.94° 303.04° Asphalt 240 ft / 73 m 98 ft / 30 m

Map

Weather


0- 5 10 15 20 25 30 35+ Temperature / ° C

Clouds and Precipitation
Forecast for 2018-05-27 12:00 UTC. Updated 5 hours ago

Ground ~20,000 ft ~40,000 ft Winds

METAR

FIMR 271600Z 08007KT 9999 FEW018 24/20 Q1019

TAF

TAF FIMR 271135Z 2712/2806 08015G25KT 9999 SCT018 TEMPO 2718/2800 7000 -SHRA FEW010 BKN016 BKN050
Warning: Do not use this data for real-world aviation or navigation. No guarantee of current accuracy is given.